Latest Coastal Weather Observations for Nullarbor

IDS60701

Issued at 5:35 am CST Sunday 21 September 2014 (issued every 10 minutes, with the page automatically refreshed every 10 minutes)

About coastal observations | Map of coastal stations | Coastal observations for SA | Marine services | Other Formats
Station Details ID: 018106 Name: NULLARBOR Lat: -31.45 Lon: 130.90 Height: 64.0 m
Data from the previous 72 hours. | See also: Recent months at Nullarbor
Date/Time
CST
Temp

°C
Wind Pressure Rain
since 9am
mm
Weather Cloud Vis
km
Sea
Height
m
Swell
Dir
 
Speed
knots
Gust
knots
hPa Trend Height
m
Period
s
Dir
21/05:30am 8.4 ENE 9 10 1022.7 - 0.2 - - 10 - - - -
21/05:00am 8.2 E 8 9 1022.6 - 0.0 - - 10 - - - -
21/04:30am 9.5 E 9 10 1022.4 - 0.0 - - 10 - - - -
21/04:27am 9.5 E 9 10 1022.4 - 0.0 - - 10 - - - -
21/04:00am 7.0 E 7 9 1022.5 - 0.0 - - 2 - - - -
21/03:30am 6.9 E 8 9 1022.7 - 0.0 - - 0.2 - - - -
21/03:00am 8.0 E 6 7 1022.9 - 0.0 - - 0.3 - - - -
21/02:30am 8.4 ESE 7 7 1023.0 - 0.0 - - 0.3 - - - -
21/02:00am 9.7 SE 6 7 1023.4 - 0.0 - - 0.4 - - - -
21/01:30am 10.0 ESE 7 7 1023.8 - 0.0 - - 0.4 - - - -
21/01:04am 10.7 SE 6 7 1024.0 - 0.0 - - 7 - - - -
21/01:00am 10.7 SE 6 7 1024.0 - 0.0 - - 9 - - - -
21/12:30am 11.7 SE 8 9 1024.2 - 0.0 - - 10 - - - -
21/12:00am 11.7 SE 9 9 1024.4 - 0.0 - - 10 - - - -
 
Date/Time
CST
Temp

°C
Wind Pressure Rain
since 9am
mm
Weather Cloud Vis
km
Sea
Height
m
Swell
Dir
 
Speed
knots
Gust
knots
hPa Trend Height
m
Period
s
Dir
20/11:30pm 12.0 SE 8 9 1024.4 - 0.0 - - 10 - - - -
20/11:00pm 12.4 SE 8 9 1024.5 - 0.0 - - 10 - - - -
20/10:30pm 12.6 SE 8 9 1024.6 - 0.0 - - 10 - - - -
20/10:00pm 12.7 SE 8 10 1024.6 - 0.0 - - 10 - - - -
20/09:30pm 12.7 SE 9 10 1024.3 - 0.0 - - 10 - - - -
20/09:00pm 12.7 SSE 9 11 1024.2 - 0.0 - - 10 - - - -
20/08:30pm 13.1 SSE 9 12 1024.1 - 0.0 - - 10 - - - -
20/08:00pm 13.2 SSE 9 10 1023.9 - 0.0 - - 10 - - - -
20/07:30pm 13.8 SSE 9 11 1023.6 - 0.0 - - 10 - - - -
20/07:00pm 14.4 SSE 10 13 1023.4 - 0.0 - - 10 - - - -
20/06:30pm 15.3 SSE 13 17 1023.2 - 0.0 - - 10 - - - -
20/06:00pm 16.1 SSE 14 17 1022.9 - 0.0 - - 10 - - - -
20/05:30pm 17.0 S 14 17 1022.7 - 0.0 - - 10 - - - -
20/05:00pm 17.7 SSE 14 17 1022.5 - 0.0 - - 10 - - - -
20/04:30pm 18.4 SSE 13 18 1022.2 - 0.0 - - 10 - - - -
20/04:00pm 18.9 SSE 14 17 1022.1 - 0.0 - - 10 - - - -
20/03:30pm 19.6 SSE 14 20 1021.9 - 0.0 - - 10 - - - -
20/03:00pm 19.6 SSE 14 17 1021.9 - 0.0 - - 10 - - - -
20/02:30pm 19.7 SSE 13 17 1022.2 - 0.0 - - 10 - - - -
20/02:00pm 20.0 SSE 13 17 1022.5 - 0.0 - - 10 - - - -
20/01:30pm 20.7 SE 13 19 1022.8 - 0.0 - - 10 - - - -
20/01:00pm 20.4 SSE 15 21 1022.9 - 0.0 - - 10 - - - -
20/12:30pm 20.2 SSE 15 22 1023.3 - 0.0 - - 10 - - - -
20/12:00pm 20.7 SSE 15 19 1023.6 - 0.0 - - 10 - - - -
20/11:30am 20.0 SSE 15 20 1023.9 - 0.0 - - 10 - - - -
20/11:00am 20.5 SSE 14 19 1024.0 - 0.0 - - 10 - - - -
20/10:30am 20.1 S 12 17 1024.0 - 0.0 - - 10 - - - -
20/10:00am 19.3 SE 9 12 1024.2 - 0.0 - - 10 - - - -
20/09:30am 18.1 SE 9 13 1024.1 - 0.0 - - 10 - - - -
20/09:00am 17.5 SE 10 14 1024.1 - 0.0 - - 10 - - - -
20/08:30am 16.2 SSE 11 14 1023.8 - 0.0 - - 10 - - - -
20/08:00am 14.8 SSE 9 12 1023.7 - 0.0 - - 10 - - - -
20/07:30am 12.2 S 7 8 1023.4 - 0.0 - - 10 - - - -
20/07:29am 12.0 S 7 8 1023.4 - 0.0 - - 10 - - - -
20/07:00am 9.4 S 7 7 1023.0 - 0.0 - - 1 - - - -
20/06:30am 9.2 S 8 10 1022.7 - 0.0 - - 1 - - - -
20/06:00am 8.6 S 6 8 1022.3 - 0.0 - - 2 - - - -
20/05:31am 10.2 S 7 9 1021.9 - 0.0 - - 7 - - - -
20/05:30am 10.2 S 7 8 1021.8 - 0.0 - - 8 - - - -
20/05:00am 11.1 S 9 10 1021.4 - 0.0 - - 10 - - - -
20/04:30am 10.3 S 9 10 1021.0 - 0.0 - - 10 - - - -
20/04:00am 10.3 S 9 10 1020.7 - 0.0 - - 10 - - - -
20/03:30am 9.3 S 9 10 1020.6 - 0.0 - - 8 - - - -
20/03:00am 9.2 SSW 9 10 1020.5 - 0.0 - - 10 - - - -
20/02:30am 8.7 S 7 10 1020.6 - 0.0 - - 10 - - - -
20/02:00am 8.8 SSW 6 7 1020.9 - 0.0 - Partly cloudy 10 - - - -
20/01:30am 9.2 CALM 0 1 1020.6 - 0.0 - - 10 - - - -
20/01:00am 10.0 CALM 0 0 1020.5 - 0.0 - - 10 - - - -
20/12:30am 10.9 SSW 3 7 1020.6 - 0.0 - Partly cloudy 10 - - - -
20/12:00am 10.9 ESE 6 9 1020.6 - 0.0 - Mostly clear 10 - - - -
 
Date/Time
CST
Temp

°C
Wind Pressure Rain
since 9am
mm
Weather Cloud Vis
km
Sea
Height
m
Swell
Dir
 
Speed
knots
Gust
knots
hPa Trend Height
m
Period
s
Dir
19/11:30pm 13.0 E 7 7 1020.9 - 0.0 - Partly cloudy 10 - - - -
19/11:00pm 14.2 E 8 11 1021.0 - 0.0 - Partly cloudy 10 - - - -
19/10:30pm 14.0 E 9 11 1021.1 - 0.0 - Partly cloudy 10 - - - -
19/10:00pm 13.9 ESE 10 12 1021.2 - 0.0 - - 10 - - - -
19/09:30pm 14.1 SE 9 11 1021.3 - 0.0 - - 10 - - - -
19/09:00pm 15.1 ESE 11 15 1020.7 - 0.0 - Partly cloudy 10 - - - -
19/08:30pm 15.6 ESE 13 16 1020.6 - 0.0 - Partly cloudy 10 - - - -
19/08:00pm 15.3 ESE 13 18 1020.3 - 0.0 - Partly cloudy 10 - - - -
19/07:30pm 15.2 SE 13 17 1020.1 - 0.0 - Partly cloudy 10 - - - -
19/07:00pm 15.7 SE 14 19 1020.1 - 0.0 - Partly cloudy 10 - - - -
19/06:30pm 16.3 SE 15 19 1020.0 - 0.0 - Partly cloudy 10 - - - -
19/06:00pm 17.3 SE 18 23 1019.6 - 0.0 - Cloudy 10 - - - -
19/05:30pm 18.1 SSE 17 22 1019.3 - 0.0 - Partly cloudy 10 - - - -
19/05:00pm 18.5 SE 18 22 1018.7 - 0.0 - Cloudy 10 - - - -
19/04:30pm 20.7 SE 19 22 1018.6 - 0.0 - Partly cloudy 10 - - - -
19/04:00pm 21.4 SE 17 21 1018.3 - 0.0 - - 10 - - - -
19/03:30pm 22.5 SE 16 19 1018.3 - 0.0 - - 10 - - - -
19/03:00pm 21.9 SE 16 19 1018.6 - 0.0 - Mostly clear 10 - - - -
19/02:30pm 23.3 SE 14 18 1018.6 - 0.0 - Partly cloudy 10 - - - -
19/02:00pm 23.8 ESE 14 20 1018.6 - 0.0 - - 10 - - - -
19/01:30pm 23.4 ESE 13 17 1019.4 - 0.0 - - 10 - - - -
19/01:00pm 24.2 ENE 10 16 1019.7 - 0.0 - - 10 - - - -
19/12:30pm 24.0 ENE 9 14 1020.1 - 0.0 - - 10 - - - -
19/12:00pm 23.2 ENE 9 17 1020.7 - 0.0 - Mostly clear 10 - - - -
19/11:30am 21.4 NE 11 16 1021.2 - 0.0 - - 10 - - - -
19/11:00am 21.7 ENE 12 17 1021.5 - 0.0 - - 10 - - - -
19/10:30am 20.3 NE 11 15 1022.3 - 0.0 - - 10 - - - -
19/10:00am 18.6 NE 10 12 1022.7 - 0.0 - - 10 - - - -
19/09:30am 16.4 NE 9 12 1022.9 - 0.0 - - 10 - - - -
19/09:00am 13.5 NE 8 10 1023.1 - 0.0 - - 10 - - - -
19/08:30am 12.4 ENE 10 13 1022.8 - 0.0 - - 10 - - - -
19/08:00am 10.4 E 7 11 1022.4 - 0.0 - - 10 - - - -
19/07:30am 8.0 E 7 8 1022.1 - 0.0 - - 10 - - - -
19/07:00am 6.4 E 8 9 1022.0 - 0.0 - - 10 - - - -
19/06:30am 5.6 E 8 9 1021.8 - 0.0 - - 10 - - - -
19/06:00am 5.6 E 8 9 1021.7 - 0.0 - - 10 - - - -
19/05:30am 5.7 E 8 9 1021.4 - 0.0 - - 10 - - - -
19/05:00am 6.0 E 7 8 1021.3 - 0.0 - - 10 - - - -
19/04:30am 7.0 E 8 9 1021.2 - 0.0 - - 10 - - - -
19/04:00am 7.3 E 8 10 1021.1 - 0.0 - - 10 - - - -
19/03:30am 7.6 E 9 11 1021.3 - 0.0 - - 10 - - - -
19/03:00am 7.9 E 8 9 1021.5 - 0.0 - - 10 - - - -
19/02:30am 8.6 E 9 11 1021.6 - 0.0 - - 10 - - - -
19/02:00am 9.1 E 9 11 1022.0 - 0.0 - - 10 - - - -
19/01:30am 9.8 E 10 12 1022.1 - 0.0 - - 10 - - - -
19/01:00am 10.3 E 10 12 1022.2 - 0.0 - - 10 - - - -
19/12:30am 11.2 E 13 17 1022.4 - 0.0 - - 10 - - - -
19/12:00am 11.7 ESE 13 18 1022.5 - 0.0 - - 10 - - - -
 
Date/Time
CST
Temp

°C
Wind Pressure Rain
since 9am
mm
Weather Cloud Vis
km
Sea
Height
m
Swell
Dir
 
Speed
knots
Gust
knots
hPa Trend Height
m
Period
s
Dir
18/11:30pm 12.0 ESE 13 17 1022.7 - 0.0 - - 10 - - - -
18/11:00pm 12.1 ESE 13 16 1023.0 - 0.0 - - 10 - - - -
18/10:30pm 12.3 ESE 11 14 1023.3 - 0.0 - - 10 - - - -
18/10:00pm 12.4 ESE 12 16 1023.3 - 0.0 - - 10 - - - -
18/09:30pm 12.9 ESE 13 16 1023.3 - 0.0 - - 10 - - - -
18/09:00pm 13.1 ESE 13 15 1023.5 - 0.0 - - 10 - - - -
18/08:30pm 13.1 ESE 12 16 1023.2 - 0.0 - - 10 - - - -
18/08:00pm 13.2 SE 11 15 1023.1 - 0.0 - - 10 - - - -
18/07:30pm 13.3 SE 12 14 1023.0 - 0.0 - - 10 - - - -
18/07:00pm 13.8 ESE 10 13 1022.9 - 0.0 - - 10 - - - -
18/06:30pm 14.6 SE 13 17 1022.6 - 0.0 - - 10 - - - -
18/06:00pm 15.6 SE 15 18 1022.4 - 0.0 - - 10 - - - -
18/05:30pm 16.7 SE 14 17 1022.3 - 0.0 - - 10 - - - -
18/05:00pm 18.1 ESE 10 14 1022.0 - 0.0 - - 10 - - - -
18/04:30pm 19.5 ESE 10 14 1021.9 - 0.0 - - 10 - - - -
18/04:00pm 19.5 SE 11 14 1022.0 - 0.0 - - 10 - - - -
18/03:30pm 19.5 SE 10 15 1022.4 - 0.0 - - 10 - - - -
18/03:00pm 19.5 SSE 4 9 1022.9 - 0.0 - - 10 - - - -
18/02:30pm 18.8 SE 8 11 1023.0 - 0.0 - - 10 - - - -
18/02:00pm 18.0 ESE 8 12 1023.5 - 0.0 - - 10 - - - -
18/01:30pm 17.1 ESE 11 14 1023.4 - 0.0 - - 10 - - - -
18/01:00pm 17.6 E 8 12 1023.8 - 0.0 - - 10 - - - -
18/12:30pm 17.5 ENE 5 11 1024.9 - 0.0 - Partly cloudy 10 - - - -
18/12:00pm 16.2 SSE 7 11 1025.1 - 0.0 - Partly cloudy 10 - - - -
18/11:30am 13.9 ESE 7 11 1025.5 - 0.0 - Partly cloudy 10 - - - -
18/11:00am 13.4 E 2 6 1025.7 - 0.0 - Partly cloudy 10 - - - -
18/10:30am 12.8 ENE 8 10 1025.0 - 0.0 - Cloudy 10 - - - -
18/10:00am 12.3 E 7 10 1025.3 - 0.0 - Cloudy 10 - - - -
18/09:30am 12.1 E 11 15 1025.1 - 0.0 - Cloudy 10 - - - -
18/09:00am 11.5 E 9 10 1025.5 - 0.0 - Mostly cloudy 10 - - - -
18/08:30am 11.1 E 5 6 1026.5 - 0.0 - Cloudy 10 - - - -
18/08:00am 10.7 ESE 7 9 1025.7 - 0.0 - Partly cloudy 10 - - - -
18/07:30am 10.1 ESE 9 12 1024.8 - 0.0 - - 10 - - - -
18/07:00am 9.8 E 9 11 1024.5 - 0.0 - - 10 - - - -
18/06:30am 9.3 E 8 10 1024.4 - 0.0 - - 10 - - - -
18/06:00am 8.8 ESE 8 9 1024.0 - 0.0 - Cloudy 10 - - - -

Other Formats:

Comma delimited format used in spreadsheet applications
http://www.bom.gov.au/fwo/IDS60701/IDS60701.94651.axf

JavaScript Object Notation format (JSON) in row-major order
http://www.bom.gov.au/fwo/IDS60701/IDS60701.94651.json